createdAt,value
2019-02-21T00:07:38.149Z,101966.98
2019-02-21T00:12:42.305Z,101967.06
2019-02-21T00:17:46.414Z,101970.58
2019-02-21T00:22:50.404Z,101967.84
2019-02-21T00:28:01.602Z,101970.99
2019-02-21T00:33:05.602Z,101970.88
2019-02-21T00:38:10.099Z,101964.66
2019-02-21T00:43:14.197Z,101966.59
2019-02-21T00:48:18.239Z,101961.87
2019-02-21T00:53:22.298Z,101969.05
2019-02-21T00:58:26.401Z,101965.41
2019-02-21T01:03:30.482Z,101963.19
2019-02-21T01:08:34.560Z,101967.81
2019-02-21T01:24:09.464Z,101971.73
2019-02-21T01:29:14.081Z,101964.52
2019-02-21T01:34:18.267Z,101958.11
2019-02-21T01:39:22.303Z,101953.74
2019-02-21T01:44:26.454Z,101941.69
2019-02-21T01:49:31.388Z,101936.33
2019-02-21T01:54:35.435Z,101921.52
2019-02-21T01:59:39.520Z,101927.28
2019-02-21T02:04:43.568Z,101926.18
2019-02-21T02:09:58.940Z,101930.44
2019-02-21T02:15:03.104Z,101936.30
2019-02-21T02:20:07.289Z,101935.82
2019-02-21T02:25:11.388Z,101939.28
2019-02-21T02:30:15.786Z,101940.03
2019-02-21T02:35:19.901Z,101933.26
2019-02-21T02:40:24.190Z,101926.52
2019-02-21T02:45:28.351Z,101927.75
2019-02-21T02:50:43.611Z,101923.50
2019-02-21T02:55:47.687Z,101919.47
2019-02-21T03:01:05.987Z,101910.14
2019-02-21T03:06:06.860Z,101914.23
2019-02-21T03:11:10.955Z,101926.19
2019-02-21T03:16:15.036Z,101932.81
2019-02-21T03:21:19.104Z,101934.48
2019-02-21T03:26:23.570Z,101934.34
2019-02-21T03:31:27.671Z,101933.38
2019-02-21T03:36:31.746Z,101935.39
2019-02-21T03:41:41.690Z,101945.82
2019-02-21T03:46:45.827Z,101944.02
2019-02-21T03:51:49.928Z,101949.14
2019-02-21T03:56:53.984Z,101949.42
2019-02-21T04:02:05.139Z,101943.43
2019-02-21T04:07:10.179Z,101943.20
2019-02-21T04:12:14.735Z,101943.95
2019-02-21T04:17:18.890Z,101943.23
2019-02-21T04:22:23.069Z,101949.27
2019-02-21T04:27:27.136Z,101943.67
2019-02-21T04:32:31.357Z,101945.44
2019-02-21T04:37:35.385Z,101942.14
2019-02-21T04:42:39.928Z,101943.61
2019-02-21T04:47:44.232Z,101942.42
2019-02-21T04:52:59.652Z,101942.45
2019-02-21T04:58:03.812Z,101939.86
2019-02-21T05:03:08.026Z,101936.38
2019-02-21T05:08:12.505Z,101930.98
2019-02-21T05:13:17.660Z,101928.45
2019-02-21T05:18:25.103Z,101924.21
2019-02-21T05:23:30.125Z,101933.02
2019-02-21T05:28:34.301Z,101935.38
2019-02-21T05:33:38.495Z,101936.81
2019-02-21T05:38:44.170Z,101921.07
2019-02-21T05:43:48.429Z,101924.99
2019-02-21T05:48:52.647Z,101931.03
2019-02-21T05:53:56.858Z,101924.83
2019-02-21T05:59:00.965Z,101918.14
2019-02-21T06:04:05.121Z,101920.80
2019-02-21T06:09:09.282Z,101916.88
2019-02-21T06:14:13.341Z,101924.89
2019-02-21T06:19:17.515Z,101924.14
2019-02-21T06:24:22.536Z,101915.31
2019-02-21T06:29:26.692Z,101922.00
2019-02-21T06:34:31.734Z,101919.44
2019-02-21T06:39:36.953Z,101912.18
2019-02-21T06:44:41.185Z,101921.76
2019-02-21T06:49:45.430Z,101922.41
2019-02-21T06:54:49.552Z,101924.45
2019-02-21T06:59:53.758Z,101929.97
2019-02-21T07:04:58.245Z,101918.41
2019-02-21T07:10:03.668Z,101925.72
2019-02-21T07:15:09.440Z,101921.13
2019-02-21T07:20:14.094Z,101925.39
2019-02-21T07:25:18.439Z,101926.98
2019-02-21T07:30:23.220Z,101933.28
2019-02-21T07:35:27.461Z,101942.00
2019-02-21T07:40:31.987Z,101949.77
2019-02-21T07:45:36.569Z,101947.10
2019-02-21T07:50:41.020Z,101944.45
2019-02-21T07:55:45.306Z,101958.27
2019-02-21T08:00:49.388Z,101968.53
2019-02-21T08:05:53.487Z,101972.98
2019-02-21T08:10:57.556Z,101980.61
2019-02-21T08:16:01.804Z,101988.75
2019-02-21T08:21:05.899Z,101983.11
2019-02-21T08:26:10.054Z,101989.52
2019-02-21T08:31:14.079Z,101992.80
2019-02-21T08:36:18.238Z,101988.31
2019-02-21T08:41:22.317Z,101975.21
2019-02-21T08:46:26.383Z,101967.84
2019-02-21T08:51:30.505Z,101974.73
2019-02-21T08:56:34.730Z,101978.98
2019-02-21T09:01:38.827Z,101976.08
2019-02-21T09:06:42.865Z,101989.64
2019-02-21T09:11:46.957Z,101983.83
2019-02-21T09:16:51.768Z,101979.42
2019-02-21T09:21:55.858Z,101975.53
2019-02-21T09:27:02.113Z,101969.50
2019-02-21T09:32:07.035Z,101972.87
2019-02-21T09:37:11.622Z,101967.02
2019-02-21T09:42:15.769Z,101967.89
2019-02-21T09:47:20.008Z,101967.05
2019-02-21T09:52:24.234Z,101956.19
2019-02-21T09:57:28.606Z,101961.62
2019-02-21T10:02:32.695Z,101961.84
2019-02-21T10:07:37.327Z,101959.23
2019-02-21T10:12:41.817Z,101932.48
2019-02-21T10:17:50.806Z,101945.17
2019-02-21T10:22:54.706Z,101936.31
2019-02-21T10:27:59.259Z,101936.31
2019-02-21T10:33:03.577Z,101932.01
2019-02-21T10:38:07.667Z,101928.56
2019-02-21T10:43:11.835Z,101935.63
2019-02-21T10:48:16.020Z,101928.08
2019-02-21T10:53:20.488Z,101926.31
2019-02-21T10:58:24.671Z,101912.73
2019-02-21T11:03:28.771Z,101900.63
2019-02-21T11:08:32.880Z,101885.64
2019-02-21T11:13:36.913Z,101881.12
2019-02-21T11:18:41.311Z,101859.43
2019-02-21T11:23:45.367Z,101866.23
2019-02-21T11:28:49.423Z,101859.14
2019-02-21T11:33:53.503Z,101841.79
2019-02-21T11:38:57.602Z,101844.81
2019-02-21T11:44:01.643Z,101842.88
2019-02-21T11:49:05.784Z,101831.44
2019-02-21T11:54:09.864Z,101837.23
2019-02-21T11:59:16.034Z,101840.66
2019-02-21T12:04:25.094Z,101833.83
2019-02-21T12:09:29.113Z,101821.70
2019-02-21T12:14:33.180Z,101829.02
2019-02-21T12:19:37.243Z,101814.43
2019-02-21T12:24:41.310Z,101832.48
2019-02-21T12:29:45.426Z,101824.88
2019-02-21T12:40:16.717Z,101830.76
2019-02-21T12:45:40.039Z,101838.32
2019-02-21T12:50:44.727Z,101838.06
2019-02-21T12:55:55.634Z,101847.91
2019-02-21T13:00:59.688Z,101851.58
2019-02-21T13:11:22.837Z,101853.32
2019-02-21T13:16:26.896Z,101852.53
2019-02-21T13:21:50.496Z,101852.85
2019-02-21T13:26:54.561Z,101843.82
2019-02-21T13:31:58.717Z,101840.73
2019-02-21T13:37:28.665Z,101839.70
2019-02-21T13:42:51.922Z,101847.48
2019-02-21T13:47:56.456Z,101841.23
2019-02-21T13:53:00.556Z,101836.22
2019-02-21T13:58:24.679Z,101826.17
2019-02-21T14:03:28.819Z,101830.12
2019-02-21T14:08:34.764Z,101842.34
2019-02-21T14:13:39.366Z,101848.84
2019-02-21T14:18:43.477Z,101835.66
2019-02-21T14:23:47.532Z,101839.89
2019-02-21T14:28:51.942Z,101837.20
2019-02-21T14:33:56.057Z,101850.75
2019-02-21T14:39:00.181Z,101854.00
2019-02-21T14:49:20.254Z,101857.75
2019-02-21T14:54:24.655Z,101853.87
2019-02-21T14:59:29.013Z,101869.39
2019-02-21T15:10:34.325Z,101868.25
2019-02-21T15:15:38.461Z,101864.53
2019-02-21T15:20:43.557Z,101869.48
2019-02-21T15:25:53.715Z,101862.38
2019-02-21T15:31:16.881Z,101860.87
2019-02-21T15:36:39.985Z,101849.98
2019-02-21T15:47:20.694Z,101856.53
2019-02-21T15:52:25.636Z,101859.36
2019-02-21T15:57:29.691Z,101858.64
2019-02-21T16:02:33.768Z,101860.95
2019-02-21T16:07:38.630Z,101862.91
2019-02-21T16:12:43.388Z,101864.81
2019-02-21T16:17:54.981Z,101860.53
2019-02-21T16:22:59.083Z,101855.09
2019-02-21T16:28:03.304Z,101851.86
2019-02-21T16:33:07.409Z,101848.30
2019-02-21T16:38:11.494Z,101845.82
2019-02-21T16:43:15.690Z,101848.09
2019-02-21T16:48:19.863Z,101854.45
2019-02-21T16:53:23.948Z,101860.27
2019-02-21T16:58:28.522Z,101867.75
2019-02-21T17:03:32.638Z,101873.22
2019-02-21T17:08:36.821Z,101868.36
2019-02-21T17:13:40.937Z,101872.48
2019-02-21T17:18:45.118Z,101875.33
2019-02-21T17:23:49.251Z,101882.95
2019-02-21T17:28:53.304Z,101887.65
2019-02-21T17:33:59.388Z,101890.56
2019-02-21T17:39:05.914Z,101891.46
2019-02-21T17:44:14.917Z,101888.06
2019-02-21T17:49:20.441Z,101893.37
2019-02-21T17:54:27.627Z,101889.93
2019-02-21T17:59:33.438Z,101891.10
2019-02-21T18:04:38.852Z,101907.87
2019-02-21T18:09:44.004Z,101907.47
2019-02-21T18:14:48.393Z,101927.55
2019-02-21T18:19:52.517Z,101932.72
2019-02-21T18:24:58.918Z,101932.87
2019-02-21T18:30:03.593Z,101926.52
2019-02-21T18:35:08.204Z,101929.35
2019-02-21T18:40:17.356Z,101928.39
2019-02-21T18:45:19.638Z,101930.49
2019-02-21T18:50:23.707Z,101928.95
2019-02-21T18:55:28.051Z,101920.20
2019-02-21T19:00:32.124Z,101925.41
2019-02-21T19:05:54.185Z,101918.11
2019-02-21T19:10:58.747Z,101915.91
2019-02-21T19:16:03.210Z,101913.80
2019-02-21T19:21:07.985Z,101911.59
2019-02-21T19:26:12.253Z,101921.80
2019-02-21T19:31:18.899Z,101912.58
2019-02-21T19:36:23.012Z,101916.37
2019-02-21T19:41:28.251Z,101913.80
2019-02-21T19:46:35.586Z,101916.37
2019-02-21T19:51:41.499Z,101914.94
2019-02-21T19:56:47.496Z,101920.76
2019-02-21T20:01:53.827Z,101927.16
2019-02-21T20:07:01.111Z,101923.06
2019-02-21T20:12:07.028Z,101919.42
2019-02-21T20:17:13.124Z,101916.41
2019-02-21T20:22:22.104Z,101923.17
2019-02-21T20:27:27.196Z,101920.88
2019-02-21T20:32:33.616Z,101923.91
2019-02-21T20:37:42.201Z,101921.61
2019-02-21T20:42:48.479Z,101931.92
2019-02-21T20:47:55.068Z,101941.58
2019-02-21T20:53:18.397Z,101941.73
2019-02-21T20:58:23.126Z,101934.32
2019-02-21T21:03:28.443Z,101941.27
2019-02-21T21:08:42.717Z,101937.36
2019-02-21T21:13:39.586Z,101934.95
2019-02-21T21:18:44.351Z,101947.55
2019-02-21T21:23:49.108Z,101953.95
2019-02-21T21:28:53.856Z,101956.63
2019-02-21T21:34:00.538Z,101956.39
2019-02-21T21:39:06.649Z,101966.55
2019-02-21T21:44:10.800Z,101972.52
2019-02-21T21:49:15.980Z,101973.00
2019-02-21T21:54:20.126Z,101971.49
2019-02-21T21:59:24.276Z,101975.28
2019-02-21T22:04:28.560Z,101980.99
2019-02-21T22:09:32.798Z,101975.03
2019-02-21T22:14:55.914Z,101978.91
2019-02-21T22:20:07.272Z,101991.39
2019-02-21T22:30:46.748Z,101998.16
2019-02-21T22:35:51.479Z,102009.72
2019-02-21T22:41:01.883Z,101999.52
2019-02-21T22:46:07.708Z,102014.57
2019-02-21T22:51:11.807Z,102011.55
2019-02-21T22:56:15.992Z,102016.91
2019-02-21T23:07:36.697Z,102027.47
2019-02-21T23:12:40.810Z,102037.67
2019-02-21T23:18:05.775Z,102035.85
2019-02-21T23:23:09.907Z,102035.75
2019-02-21T23:33:29.440Z,102037.94
2019-02-21T23:38:33.559Z,102050.54
2019-02-21T23:43:37.631Z,102052.25
2019-02-21T23:48:41.677Z,102051.55
2019-02-21T23:53:46.075Z,102062.93
